sensor_id;sensor_type;location;lat;lon;timestamp;P1;durP1;ratioP1;P2;durP2;ratioP2
14732;SDS011;7457;50.960;6.830;2023-03-01T00:01:23;11.85;;;9.32;;
14732;SDS011;7457;50.960;6.830;2023-03-01T00:03:51;9.98;;;8.88;;
14732;SDS011;7457;50.960;6.830;2023-03-01T00:06:17;10.55;;;9.45;;
14732;SDS011;7457;50.960;6.830;2023-03-01T00:08:43;11.38;;;9.00;;
14732;SDS011;7457;50.960;6.830;2023-03-01T00:13:40;10.40;;;9.30;;
14732;SDS011;7457;50.960;6.830;2023-03-01T00:16:08;10.68;;;9.25;;
14732;SDS011;7457;50.960;6.830;2023-03-01T00:18:36;12.93;;;9.90;;
14732;SDS011;7457;50.960;6.830;2023-03-01T00:21:01;12.20;;;9.50;;
14732;SDS011;7457;50.960;6.830;2023-03-01T00:23:27;14.27;;;9.57;;
14732;SDS011;7457;50.960;6.830;2023-03-01T00:25:53;12.15;;;9.75;;
14732;SDS011;7457;50.960;6.830;2023-03-01T00:28:19;11.20;;;9.48;;
14732;SDS011;7457;50.960;6.830;2023-03-01T00:30:45;12.52;;;9.93;;
14732;SDS011;7457;50.960;6.830;2023-03-01T00:33:13;12.63;;;9.75;;
14732;SDS011;7457;50.960;6.830;2023-03-01T00:35:38;14.48;;;10.70;;
14732;SDS011;7457;50.960;6.830;2023-03-01T00:38:04;12.65;;;10.02;;
14732;SDS011;7457;50.960;6.830;2023-03-01T00:40:31;11.35;;;9.93;;
14732;SDS011;7457;50.960;6.830;2023-03-01T00:42:58;12.68;;;9.98;;
14732;SDS011;7457;50.960;6.830;2023-03-01T00:45:24;11.10;;;8.55;;
14732;SDS011;7457;50.960;6.830;2023-03-01T00:47:50;11.73;;;9.05;;
14732;SDS011;7457;50.960;6.830;2023-03-01T00:50:16;13.80;;;8.88;;
14732;SDS011;7457;50.960;6.830;2023-03-01T00:52:42;9.82;;;8.45;;
14732;SDS011;7457;50.960;6.830;2023-03-01T00:55:08;10.95;;;8.63;;
14732;SDS011;7457;50.960;6.830;2023-03-01T00:57:33;13.10;;;9.15;;
14732;SDS011;7457;50.960;6.830;2023-03-01T00:59:59;13.32;;;8.95;;
14732;SDS011;7457;50.960;6.830;2023-03-01T01:02:25;11.05;;;8.75;;
14732;SDS011;7457;50.960;6.830;2023-03-01T01:04:51;10.63;;;8.68;;
14732;SDS011;7457;50.960;6.830;2023-03-01T01:07:17;11.13;;;9.57;;
14732;SDS011;7457;50.960;6.830;2023-03-01T01:09:44;10.93;;;8.88;;
14732;SDS011;7457;50.960;6.830;2023-03-01T01:12:10;9.02;;;8.13;;
14732;SDS011;7457;50.960;6.830;2023-03-01T01:14:36;12.73;;;8.68;;
14732;SDS011;7457;50.960;6.830;2023-03-01T01:17:02;11.55;;;9.60;;
14732;SDS011;7457;50.960;6.830;2023-03-01T01:19:27;14.23;;;9.43;;
14732;SDS011;7457;50.960;6.830;2023-03-01T01:21:53;13.00;;;8.93;;
14732;SDS011;7457;50.960;6.830;2023-03-01T01:24:19;13.55;;;9.82;;
14732;SDS011;7457;50.960;6.830;2023-03-01T01:26:44;12.00;;;9.07;;
14732;SDS011;7457;50.960;6.830;2023-03-01T01:29:10;11.40;;;9.32;;
14732;SDS011;7457;50.960;6.830;2023-03-01T01:31:37;13.63;;;9.38;;
14732;SDS011;7457;50.960;6.830;2023-03-01T01:34:04;11.90;;;8.48;;
14732;SDS011;7457;50.960;6.830;2023-03-01T01:36:31;11.05;;;9.05;;
14732;SDS011;7457;50.960;6.830;2023-03-01T01:38:58;10.48;;;8.75;;
14732;SDS011;7457;50.960;6.830;2023-03-01T01:41:24;13.02;;;9.32;;
14732;SDS011;7457;50.960;6.830;2023-03-01T01:46:43;13.82;;;10.18;;
14732;SDS011;7457;50.960;6.830;2023-03-01T01:52:09;12.20;;;9.00;;
14732;SDS011;7457;50.960;6.830;2023-03-01T01:54:43;11.95;;;9.68;;
14732;SDS011;7457;50.960;6.830;2023-03-01T01:57:16;11.32;;;10.15;;
14732;SDS011;7457;50.960;6.830;2023-03-01T01:59:47;13.25;;;10.20;;
14732;SDS011;7457;50.960;6.830;2023-03-01T02:02:17;10.57;;;9.35;;
14732;SDS011;7457;50.960;6.830;2023-03-01T02:04:44;13.85;;;9.73;;
14732;SDS011;7457;50.960;6.830;2023-03-01T02:07:14;14.43;;;10.75;;
14732;SDS011;7457;50.960;6.830;2023-03-01T02:09:44;11.93;;;10.63;;
14732;SDS011;7457;50.960;6.830;2023-03-01T02:12:12;13.80;;;10.75;;
14732;SDS011;7457;50.960;6.830;2023-03-01T02:14:39;13.20;;;10.50;;
14732;SDS011;7457;50.960;6.830;2023-03-01T02:17:04;11.20;;;9.55;;
14732;SDS011;7457;50.960;6.830;2023-03-01T02:22:19;12.05;;;9.25;;
14732;SDS011;7457;50.960;6.830;2023-03-01T02:27:57;13.45;;;10.10;;
14732;SDS011;7457;50.960;6.830;2023-03-01T02:30:36;14.35;;;10.25;;
14732;SDS011;7457;50.960;6.830;2023-03-01T02:33:02;11.68;;;9.43;;
14732;SDS011;7457;50.960;6.830;2023-03-01T02:35:29;11.23;;;10.07;;
14732;SDS011;7457;50.960;6.830;2023-03-01T02:37:59;12.18;;;9.85;;
14732;SDS011;7457;50.960;6.830;2023-03-01T02:40:26;14.48;;;11.52;;
14732;SDS011;7457;50.960;6.830;2023-03-01T02:42:56;11.23;;;10.10;;
14732;SDS011;7457;50.960;6.830;2023-03-01T02:45:23;13.70;;;9.45;;
14732;SDS011;7457;50.960;6.830;2023-03-01T02:47:50;13.90;;;10.13;;
14732;SDS011;7457;50.960;6.830;2023-03-01T02:52:57;11.98;;;10.32;;
14732;SDS011;7457;50.960;6.830;2023-03-01T02:55:33;11.55;;;9.88;;
14732;SDS011;7457;50.960;6.830;2023-03-01T02:57:58;13.07;;;9.48;;
14732;SDS011;7457;50.960;6.830;2023-03-01T03:00:32;11.90;;;8.98;;
14732;SDS011;7457;50.960;6.830;2023-03-01T03:03:05;12.85;;;10.32;;
14732;SDS011;7457;50.960;6.830;2023-03-01T03:05:31;10.75;;;9.30;;
14732;SDS011;7457;50.960;6.830;2023-03-01T03:07:58;11.68;;;9.60;;
14732;SDS011;7457;50.960;6.830;2023-03-01T03:10:29;10.10;;;9.05;;
14732;SDS011;7457;50.960;6.830;2023-03-01T03:12:57;10.95;;;9.32;;
14732;SDS011;7457;50.960;6.830;2023-03-01T03:15:26;11.30;;;9.75;;
14732;SDS011;7457;50.960;6.830;2023-03-01T03:17:53;10.50;;;9.38;;
14732;SDS011;7457;50.960;6.830;2023-03-01T03:20:20;11.43;;;10.18;;
14732;SDS011;7457;50.960;6.830;2023-03-01T03:22:49;12.02;;;9.77;;
14732;SDS011;7457;50.960;6.830;2023-03-01T03:25:17;11.95;;;9.77;;
14732;SDS011;7457;50.960;6.830;2023-03-01T03:27:43;12.15;;;9.90;;
14732;SDS011;7457;50.960;6.830;2023-03-01T03:30:11;12.10;;;10.65;;
14732;SDS011;7457;50.960;6.830;2023-03-01T03:32:40;12.73;;;10.60;;
14732;SDS011;7457;50.960;6.830;2023-03-01T03:35:07;12.75;;;10.30;;
14732;SDS011;7457;50.960;6.830;2023-03-01T03:37:40;12.40;;;10.02;;
14732;SDS011;7457;50.960;6.830;2023-03-01T03:40:25;11.68;;;9.45;;
14732;SDS011;7457;50.960;6.830;2023-03-01T03:42:51;11.75;;;10.15;;
14732;SDS011;7457;50.960;6.830;2023-03-01T03:45:17;12.85;;;10.25;;
14732;SDS011;7457;50.960;6.830;2023-03-01T03:47:43;11.95;;;10.00;;
14732;SDS011;7457;50.960;6.830;2023-03-01T03:50:09;13.52;;;12.10;;
14732;SDS011;7457;50.960;6.830;2023-03-01T03:52:36;11.45;;;9.88;;
14732;SDS011;7457;50.960;6.830;2023-03-01T03:55:02;13.60;;;10.35;;
14732;SDS011;7457;50.960;6.830;2023-03-01T03:57:28;12.68;;;11.18;;
14732;SDS011;7457;50.960;6.830;2023-03-01T03:59:53;12.40;;;9.65;;
14732;SDS011;7457;50.960;6.830;2023-03-01T04:02:19;11.75;;;9.63;;
14732;SDS011;7457;50.960;6.830;2023-03-01T04:04:47;11.88;;;9.48;;
14732;SDS011;7457;50.960;6.830;2023-03-01T04:07:16;12.80;;;10.85;;
14732;SDS011;7457;50.960;6.830;2023-03-01T04:09:43;12.82;;;10.52;;
14732;SDS011;7457;50.960;6.830;2023-03-01T04:12:09;15.13;;;11.30;;
14732;SDS011;7457;50.960;6.830;2023-03-01T04:14:35;15.32;;;10.40;;
14732;SDS011;7457;50.960;6.830;2023-03-01T04:17:01;11.88;;;10.05;;
14732;SDS011;7457;50.960;6.830;2023-03-01T04:19:30;13.30;;;10.57;;
14732;SDS011;7457;50.960;6.830;2023-03-01T04:22:01;16.98;;;11.13;;
14732;SDS011;7457;50.960;6.830;2023-03-01T04:24:32;14.98;;;11.60;;
14732;SDS011;7457;50.960;6.830;2023-03-01T04:26:58;16.42;;;10.82;;
14732;SDS011;7457;50.960;6.830;2023-03-01T04:29:24;13.32;;;11.25;;
14732;SDS011;7457;50.960;6.830;2023-03-01T04:31:49;15.35;;;11.82;;
14732;SDS011;7457;50.960;6.830;2023-03-01T04:34:15;14.82;;;11.32;;
14732;SDS011;7457;50.960;6.830;2023-03-01T04:36:40;12.85;;;10.68;;
14732;SDS011;7457;50.960;6.830;2023-03-01T04:39:06;14.25;;;10.85;;
14732;SDS011;7457;50.960;6.830;2023-03-01T04:41:37;14.15;;;11.15;;
14732;SDS011;7457;50.960;6.830;2023-03-01T04:44:08;15.02;;;11.07;;
14732;SDS011;7457;50.960;6.830;2023-03-01T04:46:34;15.32;;;10.32;;
14732;SDS011;7457;50.960;6.830;2023-03-01T04:49:00;22.40;;;10.75;;
14732;SDS011;7457;50.960;6.830;2023-03-01T04:51:27;13.52;;;10.52;;
14732;SDS011;7457;50.960;6.830;2023-03-01T04:53:52;14.63;;;11.68;;
14732;SDS011;7457;50.960;6.830;2023-03-01T04:56:18;14.48;;;11.63;;
14732;SDS011;7457;50.960;6.830;2023-03-01T04:58:44;12.27;;;10.60;;
14732;SDS011;7457;50.960;6.830;2023-03-01T05:01:10;13.82;;;11.43;;
14732;SDS011;7457;50.960;6.830;2023-03-01T05:03:40;13.32;;;10.32;;
14732;SDS011;7457;50.960;6.830;2023-03-01T05:06:10;14.02;;;11.15;;
14732;SDS011;7457;50.960;6.830;2023-03-01T05:08:37;13.70;;;11.73;;
14732;SDS011;7457;50.960;6.830;2023-03-01T05:11:03;12.25;;;10.35;;
14732;SDS011;7457;50.960;6.830;2023-03-01T05:13:30;14.88;;;10.15;;
14732;SDS011;7457;50.960;6.830;2023-03-01T05:15:59;14.02;;;12.00;;
14732;SDS011;7457;50.960;6.830;2023-03-01T05:18:27;18.30;;;14.20;;
14732;SDS011;7457;50.960;6.830;2023-03-01T05:20:55;15.98;;;14.13;;
14732;SDS011;7457;50.960;6.830;2023-03-01T05:23:26;15.00;;;11.57;;
14732;SDS011;7457;50.960;6.830;2023-03-01T05:25:51;13.55;;;11.45;;
14732;SDS011;7457;50.960;6.830;2023-03-01T05:28:18;13.60;;;11.20;;
14732;SDS011;7457;50.960;6.830;2023-03-01T05:30:44;14.00;;;11.00;;
14732;SDS011;7457;50.960;6.830;2023-03-01T05:33:11;17.65;;;11.20;;
14732;SDS011;7457;50.960;6.830;2023-03-01T05:35:40;13.80;;;10.90;;
14732;SDS011;7457;50.960;6.830;2023-03-01T05:38:07;12.27;;;10.75;;
14732;SDS011;7457;50.960;6.830;2023-03-01T05:40:34;14.52;;;10.52;;
14732;SDS011;7457;50.960;6.830;2023-03-01T05:43:00;13.05;;;11.27;;
14732;SDS011;7457;50.960;6.830;2023-03-01T05:45:27;13.15;;;11.40;;
14732;SDS011;7457;50.960;6.830;2023-03-01T05:47:53;16.27;;;11.18;;
14732;SDS011;7457;50.960;6.830;2023-03-01T05:50:21;13.07;;;9.98;;
14732;SDS011;7457;50.960;6.830;2023-03-01T05:52:52;11.45;;;10.25;;
14732;SDS011;7457;50.960;6.830;2023-03-01T05:55:23;13.45;;;11.85;;
14732;SDS011;7457;50.960;6.830;2023-03-01T05:57:49;15.52;;;12.02;;
14732;SDS011;7457;50.960;6.830;2023-03-01T06:00:16;18.33;;;11.90;;
14732;SDS011;7457;50.960;6.830;2023-03-01T06:02:43;13.60;;;11.40;;
14732;SDS011;7457;50.960;6.830;2023-03-01T06:05:10;21.13;;;12.20;;
14732;SDS011;7457;50.960;6.830;2023-03-01T06:07:36;15.45;;;11.65;;
14732;SDS011;7457;50.960;6.830;2023-03-01T06:10:02;15.65;;;11.65;;
14732;SDS011;7457;50.960;6.830;2023-03-01T06:12:32;14.18;;;11.55;;
14732;SDS011;7457;50.960;6.830;2023-03-01T06:14:59;17.08;;;11.85;;
14732;SDS011;7457;50.960;6.830;2023-03-01T06:17:24;14.27;;;11.35;;
14732;SDS011;7457;50.960;6.830;2023-03-01T06:19:50;13.70;;;10.50;;
14732;SDS011;7457;50.960;6.830;2023-03-01T06:22:16;16.70;;;11.65;;
14732;SDS011;7457;50.960;6.830;2023-03-01T06:24:42;16.35;;;12.13;;
14732;SDS011;7457;50.960;6.830;2023-03-01T06:27:07;13.43;;;10.73;;
14732;SDS011;7457;50.960;6.830;2023-03-01T06:29:33;15.15;;;11.13;;
14732;SDS011;7457;50.960;6.830;2023-03-01T06:31:58;14.27;;;11.85;;
14732;SDS011;7457;50.960;6.830;2023-03-01T06:34:24;14.00;;;12.00;;
14732;SDS011;7457;50.960;6.830;2023-03-01T06:36:50;14.52;;;12.20;;
14732;SDS011;7457;50.960;6.830;2023-03-01T06:39:15;15.00;;;12.45;;
14732;SDS011;7457;50.960;6.830;2023-03-01T06:41:42;16.70;;;12.57;;
14732;SDS011;7457;50.960;6.830;2023-03-01T06:44:08;15.82;;;13.07;;
14732;SDS011;7457;50.960;6.830;2023-03-01T06:46:34;15.95;;;12.27;;
14732;SDS011;7457;50.960;6.830;2023-03-01T06:48:59;16.95;;;12.90;;
14732;SDS011;7457;50.960;6.830;2023-03-01T06:51:25;16.83;;;12.40;;
14732;SDS011;7457;50.960;6.830;2023-03-01T06:53:51;16.77;;;12.63;;
14732;SDS011;7457;50.960;6.830;2023-03-01T06:56:16;16.67;;;12.75;;
14732;SDS011;7457;50.960;6.830;2023-03-01T06:58:42;18.75;;;13.60;;
14732;SDS011;7457;50.960;6.830;2023-03-01T07:01:08;17.13;;;12.52;;
14732;SDS011;7457;50.960;6.830;2023-03-01T07:03:34;20.52;;;13.48;;
14732;SDS011;7457;50.960;6.830;2023-03-01T07:05:59;19.83;;;13.45;;
14732;SDS011;7457;50.960;6.830;2023-03-01T07:08:25;20.02;;;12.82;;
14732;SDS011;7457;50.960;6.830;2023-03-01T07:10:54;14.88;;;11.98;;
14732;SDS011;7457;50.960;6.830;2023-03-01T07:13:21;17.35;;;11.38;;
14732;SDS011;7457;50.960;6.830;2023-03-01T07:15:46;14.35;;;11.85;;
14732;SDS011;7457;50.960;6.830;2023-03-01T07:18:12;14.10;;;11.18;;
14732;SDS011;7457;50.960;6.830;2023-03-01T07:20:38;13.65;;;9.95;;
14732;SDS011;7457;50.960;6.830;2023-03-01T07:23:05;12.35;;;10.52;;
14732;SDS011;7457;50.960;6.830;2023-03-01T07:25:31;16.75;;;10.60;;
14732;SDS011;7457;50.960;6.830;2023-03-01T07:27:57;13.52;;;10.05;;
14732;SDS011;7457;50.960;6.830;2023-03-01T07:30:23;13.05;;;10.38;;
14732;SDS011;7457;50.960;6.830;2023-03-01T07:32:51;15.23;;;9.60;;
14732;SDS011;7457;50.960;6.830;2023-03-01T07:35:17;13.73;;;9.98;;
14732;SDS011;7457;50.960;6.830;2023-03-01T07:37:42;17.75;;;10.10;;
14732;SDS011;7457;50.960;6.830;2023-03-01T07:40:08;12.93;;;10.02;;
14732;SDS011;7457;50.960;6.830;2023-03-01T07:42:35;13.95;;;11.25;;
14732;SDS011;7457;50.960;6.830;2023-03-01T07:45:00;17.58;;;14.73;;
14732;SDS011;7457;50.960;6.830;2023-03-01T07:47:26;19.98;;;12.90;;
14732;SDS011;7457;50.960;6.830;2023-03-01T07:49:51;24.60;;;18.33;;
14732;SDS011;7457;50.960;6.830;2023-03-01T07:52:17;18.77;;;14.07;;
14732;SDS011;7457;50.960;6.830;2023-03-01T07:54:43;16.45;;;11.63;;
14732;SDS011;7457;50.960;6.830;2023-03-01T07:57:11;14.15;;;11.10;;
14732;SDS011;7457;50.960;6.830;2023-03-01T07:59:37;11.95;;;10.43;;
14732;SDS011;7457;50.960;6.830;2023-03-01T08:02:03;12.85;;;10.73;;
14732;SDS011;7457;50.960;6.830;2023-03-01T08:04:28;15.90;;;10.75;;
14732;SDS011;7457;50.960;6.830;2023-03-01T08:06:54;14.35;;;10.15;;
14732;SDS011;7457;50.960;6.830;2023-03-01T08:09:20;11.88;;;10.60;;
14732;SDS011;7457;50.960;6.830;2023-03-01T08:11:46;16.27;;;11.20;;
14732;SDS011;7457;50.960;6.830;2023-03-01T08:14:12;13.30;;;10.75;;
14732;SDS011;7457;50.960;6.830;2023-03-01T08:16:37;14.23;;;10.02;;
14732;SDS011;7457;50.960;6.830;2023-03-01T08:19:07;14.02;;;9.95;;
14732;SDS011;7457;50.960;6.830;2023-03-01T08:21:34;15.18;;;10.57;;
14732;SDS011;7457;50.960;6.830;2023-03-01T08:24:00;13.68;;;10.05;;
14732;SDS011;7457;50.960;6.830;2023-03-01T08:26:31;11.52;;;9.65;;
14732;SDS011;7457;50.960;6.830;2023-03-01T08:28:57;10.27;;;9.07;;
14732;SDS011;7457;50.960;6.830;2023-03-01T08:31:35;13.70;;;10.80;;
14732;SDS011;7457;50.960;6.830;2023-03-01T08:34:03;11.50;;;10.20;;
14732;SDS011;7457;50.960;6.830;2023-03-01T08:36:32;13.80;;;10.32;;
14732;SDS011;7457;50.960;6.830;2023-03-01T08:39:01;13.05;;;9.82;;
14732;SDS011;7457;50.960;6.830;2023-03-01T08:41:27;14.07;;;11.10;;
14732;SDS011;7457;50.960;6.830;2023-03-01T08:43:53;12.32;;;9.45;;
14732;SDS011;7457;50.960;6.830;2023-03-01T08:46:23;12.35;;;9.20;;
14732;SDS011;7457;50.960;6.830;2023-03-01T08:48:56;16.58;;;10.10;;
14732;SDS011;7457;50.960;6.830;2023-03-01T08:51:23;14.88;;;10.48;;
14732;SDS011;7457;50.960;6.830;2023-03-01T08:53:49;12.52;;;9.80;;
14732;SDS011;7457;50.960;6.830;2023-03-01T08:56:15;15.40;;;10.80;;
14732;SDS011;7457;50.960;6.830;2023-03-01T08:58:44;11.73;;;9.35;;
14732;SDS011;7457;50.960;6.830;2023-03-01T09:01:12;12.27;;;9.48;;
14732;SDS011;7457;50.960;6.830;2023-03-01T09:03:40;14.30;;;11.00;;
14732;SDS011;7457;50.960;6.830;2023-03-01T09:06:06;5.88;;;5.25;;
14732;SDS011;7457;50.960;6.830;2023-03-01T09:08:36;13.50;;;10.32;;
14732;SDS011;7457;50.960;6.830;2023-03-01T09:11:04;11.77;;;9.45;;
14732;SDS011;7457;50.960;6.830;2023-03-01T09:13:31;13.77;;;9.85;;
14732;SDS011;7457;50.960;6.830;2023-03-01T09:15:58;13.82;;;10.13;;
14732;SDS011;7457;50.960;6.830;2023-03-01T09:18:24;13.80;;;10.38;;
14732;SDS011;7457;50.960;6.830;2023-03-01T09:20:50;12.50;;;10.05;;
14732;SDS011;7457;50.960;6.830;2023-03-01T09:23:15;11.07;;;8.55;;
14732;SDS011;7457;50.960;6.830;2023-03-01T09:25:41;11.50;;;9.10;;
14732;SDS011;7457;50.960;6.830;2023-03-01T09:28:06;14.73;;;10.50;;
14732;SDS011;7457;50.960;6.830;2023-03-01T09:30:32;15.35;;;10.27;;
14732;SDS011;7457;50.960;6.830;2023-03-01T09:32:58;12.00;;;8.75;;
14732;SDS011;7457;50.960;6.830;2023-03-01T09:35:23;13.40;;;10.65;;
14732;SDS011;7457;50.960;6.830;2023-03-01T09:37:50;11.23;;;9.55;;
14732;SDS011;7457;50.960;6.830;2023-03-01T09:40:20;12.45;;;10.00;;
14732;SDS011;7457;50.960;6.830;2023-03-01T09:42:53;11.40;;;9.25;;
14732;SDS011;7457;50.960;6.830;2023-03-01T09:45:43;15.77;;;9.20;;
14732;SDS011;7457;50.960;6.830;2023-03-01T09:48:16;11.38;;;9.32;;
14732;SDS011;7457;50.960;6.830;2023-03-01T09:50:44;12.13;;;8.75;;
14732;SDS011;7457;50.960;6.830;2023-03-01T09:53:22;11.90;;;8.80;;
14732;SDS011;7457;50.960;6.830;2023-03-01T09:55:59;11.00;;;9.13;;
14732;SDS011;7457;50.960;6.830;2023-03-01T10:01:38;9.25;;;5.90;;
14732;SDS011;7457;50.960;6.830;2023-03-01T10:04:41;12.55;;;9.27;;
14732;SDS011;7457;50.960;6.830;2023-03-01T10:09:37;13.00;;;9.45;;
14732;SDS011;7457;50.960;6.830;2023-03-01T10:12:07;10.55;;;8.98;;
14732;SDS011;7457;50.960;6.830;2023-03-01T10:14:37;11.10;;;8.95;;
14732;SDS011;7457;50.960;6.830;2023-03-01T10:17:07;12.32;;;9.13;;
14732;SDS011;7457;50.960;6.830;2023-03-01T10:19:40;11.43;;;9.85;;
14732;SDS011;7457;50.960;6.830;2023-03-01T10:22:18;12.02;;;8.85;;
14732;SDS011;7457;50.960;6.830;2023-03-01T10:24:57;12.70;;;10.02;;
14732;SDS011;7457;50.960;6.830;2023-03-01T10:27:32;12.10;;;9.35;;
14732;SDS011;7457;50.960;6.830;2023-03-01T10:33:03;10.85;;;8.52;;
14732;SDS011;7457;50.960;6.830;2023-03-01T10:35:50;11.15;;;6.30;;
14732;SDS011;7457;50.960;6.830;2023-03-01T10:38:16;11.10;;;9.52;;
14732;SDS011;7457;50.960;6.830;2023-03-01T10:40:52;10.50;;;8.88;;
14732;SDS011;7457;50.960;6.830;2023-03-01T10:43:25;11.82;;;8.52;;
14732;SDS011;7457;50.960;6.830;2023-03-01T10:45:57;14.07;;;9.82;;
14732;SDS011;7457;50.960;6.830;2023-03-01T10:48:24;10.85;;;9.13;;
14732;SDS011;7457;50.960;6.830;2023-03-01T10:53:24;10.68;;;9.00;;
14732;SDS011;7457;50.960;6.830;2023-03-01T10:56:06;13.90;;;9.57;;
14732;SDS011;7457;50.960;6.830;2023-03-01T10:58:38;11.07;;;9.68;;
14732;SDS011;7457;50.960;6.830;2023-03-01T11:03:42;11.43;;;9.55;;
14732;SDS011;7457;50.960;6.830;2023-03-01T11:08:38;11.20;;;10.00;;
14732;SDS011;7457;50.960;6.830;2023-03-01T11:14:15;9.63;;;8.38;;
14732;SDS011;7457;50.960;6.830;2023-03-01T11:16:47;10.23;;;9.15;;
14732;SDS011;7457;50.960;6.830;2023-03-01T11:24:16;11.82;;;9.57;;
14732;SDS011;7457;50.960;6.830;2023-03-01T11:26:47;10.38;;;9.02;;
14732;SDS011;7457;50.960;6.830;2023-03-01T11:29:32;11.57;;;9.57;;
14732;SDS011;7457;50.960;6.830;2023-03-01T11:32:01;9.35;;;8.40;;
14732;SDS011;7457;50.960;6.830;2023-03-01T11:34:37;10.75;;;9.48;;
14732;SDS011;7457;50.960;6.830;2023-03-01T11:37:26;12.60;;;9.45;;
14732;SDS011;7457;50.960;6.830;2023-03-01T11:40:05;11.20;;;8.75;;
14732;SDS011;7457;50.960;6.830;2023-03-01T11:42:46;9.00;;;7.90;;
14732;SDS011;7457;50.960;6.830;2023-03-01T11:45:13;11.93;;;9.57;;
14732;SDS011;7457;50.960;6.830;2023-03-01T11:58:05;10.73;;;8.55;;
14732;SDS011;7457;50.960;6.830;2023-03-01T12:01:17;11.80;;;8.73;;
14732;SDS011;7457;50.960;6.830;2023-03-01T12:03:54;9.98;;;8.80;;
14732;SDS011;7457;50.960;6.830;2023-03-01T12:09:35;10.90;;;9.13;;
14732;SDS011;7457;50.960;6.830;2023-03-01T12:14:58;11.02;;;9.52;;
14732;SDS011;7457;50.960;6.830;2023-03-01T12:17:32;10.45;;;9.35;;
14732;SDS011;7457;50.960;6.830;2023-03-01T12:31:56;11.85;;;9.00;;
14732;SDS011;7457;50.960;6.830;2023-03-01T12:37:21;10.90;;;8.93;;
14732;SDS011;7457;50.960;6.830;2023-03-01T12:48:25;11.55;;;8.30;;
14732;SDS011;7457;50.960;6.830;2023-03-01T12:51:31;10.20;;;8.70;;
14732;SDS011;7457;50.960;6.830;2023-03-01T12:53:59;10.57;;;6.38;;
14732;SDS011;7457;50.960;6.830;2023-03-01T12:56:36;10.93;;;8.63;;
14732;SDS011;7457;50.960;6.830;2023-03-01T13:06:55;13.63;;;9.55;;
14732;SDS011;7457;50.960;6.830;2023-03-01T13:11:59;13.70;;;8.55;;
14732;SDS011;7457;50.960;6.830;2023-03-01T13:16:54;9.82;;;8.55;;
14732;SDS011;7457;50.960;6.830;2023-03-01T13:19:21;13.20;;;9.20;;
14732;SDS011;7457;50.960;6.830;2023-03-01T13:21:49;8.43;;;6.97;;
14732;SDS011;7457;50.960;6.830;2023-03-01T13:25:02;12.25;;;8.25;;
14732;SDS011;7457;50.960;6.830;2023-03-01T13:29:47;8.25;;;6.47;;
14732;SDS011;7457;50.960;6.830;2023-03-01T13:32:24;12.13;;;8.52;;
14732;SDS011;7457;50.960;6.830;2023-03-01T13:34:51;10.13;;;8.40;;
14732;SDS011;7457;50.960;6.830;2023-03-01T13:37:28;15.00;;;10.07;;
14732;SDS011;7457;50.960;6.830;2023-03-01T13:40:03;11.65;;;9.70;;
14732;SDS011;7457;50.960;6.830;2023-03-01T13:42:50;14.82;;;8.40;;
14732;SDS011;7457;50.960;6.830;2023-03-01T13:48:08;14.45;;;10.05;;
14732;SDS011;7457;50.960;6.830;2023-03-01T13:50:38;12.00;;;8.27;;
14732;SDS011;7457;50.960;6.830;2023-03-01T13:53:14;12.63;;;9.25;;
14732;SDS011;7457;50.960;6.830;2023-03-01T13:55:48;12.07;;;10.18;;
14732;SDS011;7457;50.960;6.830;2023-03-01T14:01:00;10.05;;;8.50;;
14732;SDS011;7457;50.960;6.830;2023-03-01T14:03:28;10.27;;;8.30;;
14732;SDS011;7457;50.960;6.830;2023-03-01T14:06:02;11.63;;;8.55;;
14732;SDS011;7457;50.960;6.830;2023-03-01T14:08:32;11.38;;;8.38;;
14732;SDS011;7457;50.960;6.830;2023-03-01T14:11:04;15.02;;;8.85;;
14732;SDS011;7457;50.960;6.830;2023-03-01T14:21:34;13.73;;;7.68;;
14732;SDS011;7457;50.960;6.830;2023-03-01T14:24:01;11.40;;;7.43;;
14732;SDS011;7457;50.960;6.830;2023-03-01T14:26:27;8.02;;;7.22;;
14732;SDS011;7457;50.960;6.830;2023-03-01T14:28:53;8.52;;;7.28;;
14732;SDS011;7457;50.960;6.830;2023-03-01T14:31:31;8.70;;;7.30;;
14732;SDS011;7457;50.960;6.830;2023-03-01T14:34:01;9.23;;;7.50;;
14732;SDS011;7457;50.960;6.830;2023-03-01T14:36:28;11.52;;;6.80;;
14732;SDS011;7457;50.960;6.830;2023-03-01T14:38:55;8.75;;;5.20;;
14732;SDS011;7457;50.960;6.830;2023-03-01T14:41:25;8.35;;;7.25;;
14732;SDS011;7457;50.960;6.830;2023-03-01T14:43:55;8.82;;;6.53;;
14732;SDS011;7457;50.960;6.830;2023-03-01T14:46:30;8.88;;;6.07;;
14732;SDS011;7457;50.960;6.830;2023-03-01T14:49:03;10.07;;;7.47;;
14732;SDS011;7457;50.960;6.830;2023-03-01T14:51:39;9.35;;;7.50;;
14732;SDS011;7457;50.960;6.830;2023-03-01T14:56:51;6.38;;;5.22;;
14732;SDS011;7457;50.960;6.830;2023-03-01T14:59:19;9.65;;;7.10;;
14732;SDS011;7457;50.960;6.830;2023-03-01T15:01:48;11.35;;;7.90;;
14732;SDS011;7457;50.960;6.830;2023-03-01T15:04:15;9.30;;;7.55;;
14732;SDS011;7457;50.960;6.830;2023-03-01T15:06:41;9.63;;;7.43;;
14732;SDS011;7457;50.960;6.830;2023-03-01T15:09:11;6.03;;;4.63;;
14732;SDS011;7457;50.960;6.830;2023-03-01T15:11:40;8.50;;;6.50;;
14732;SDS011;7457;50.960;6.830;2023-03-01T15:16:53;14.23;;;7.20;;
14732;SDS011;7457;50.960;6.830;2023-03-01T15:19:19;9.07;;;7.15;;
14732;SDS011;7457;50.960;6.830;2023-03-01T15:21:49;7.75;;;6.40;;
14732;SDS011;7457;50.960;6.830;2023-03-01T15:24:20;8.10;;;5.20;;
14732;SDS011;7457;50.960;6.830;2023-03-01T15:26:50;9.98;;;5.05;;
14732;SDS011;7457;50.960;6.830;2023-03-01T15:29:20;7.78;;;6.07;;
14732;SDS011;7457;50.960;6.830;2023-03-01T15:34:51;9.07;;;6.93;;
14732;SDS011;7457;50.960;6.830;2023-03-01T15:42:56;8.93;;;6.53;;
14732;SDS011;7457;50.960;6.830;2023-03-01T15:45:26;8.73;;;5.75;;
14732;SDS011;7457;50.960;6.830;2023-03-01T15:48:03;10.07;;;7.13;;
14732;SDS011;7457;50.960;6.830;2023-03-01T15:52:58;10.70;;;6.90;;
14732;SDS011;7457;50.960;6.830;2023-03-01T15:55:29;10.30;;;7.53;;
14732;SDS011;7457;50.960;6.830;2023-03-01T15:58:04;11.00;;;6.90;;
14732;SDS011;7457;50.960;6.830;2023-03-01T16:00:35;10.15;;;6.50;;
14732;SDS011;7457;50.960;6.830;2023-03-01T16:03:01;9.52;;;6.72;;
14732;SDS011;7457;50.960;6.830;2023-03-01T16:05:28;7.28;;;4.80;;
14732;SDS011;7457;50.960;6.830;2023-03-01T16:07:56;7.90;;;5.97;;
14732;SDS011;7457;50.960;6.830;2023-03-01T16:10:22;8.73;;;6.95;;
14732;SDS011;7457;50.960;6.830;2023-03-01T16:12:48;10.07;;;7.00;;
14732;SDS011;7457;50.960;6.830;2023-03-01T16:15:35;8.25;;;6.20;;
14732;SDS011;7457;50.960;6.830;2023-03-01T16:18:00;7.75;;;6.55;;
14732;SDS011;7457;50.960;6.830;2023-03-01T16:20:28;7.95;;;5.93;;
14732;SDS011;7457;50.960;6.830;2023-03-01T16:22:55;6.72;;;5.88;;
14732;SDS011;7457;50.960;6.830;2023-03-01T16:25:24;7.50;;;4.80;;
14732;SDS011;7457;50.960;6.830;2023-03-01T16:27:50;5.47;;;4.60;;
14732;SDS011;7457;50.960;6.830;2023-03-01T16:30:20;8.07;;;5.88;;
14732;SDS011;7457;50.960;6.830;2023-03-01T16:32:47;8.48;;;5.30;;
14732;SDS011;7457;50.960;6.830;2023-03-01T16:35:14;6.72;;;5.10;;
14732;SDS011;7457;50.960;6.830;2023-03-01T16:37:42;8.73;;;5.72;;
14732;SDS011;7457;50.960;6.830;2023-03-01T16:42:36;7.93;;;6.38;;
14732;SDS011;7457;50.960;6.830;2023-03-01T16:45:02;6.82;;;4.45;;
14732;SDS011;7457;50.960;6.830;2023-03-01T16:47:29;9.77;;;5.35;;
14732;SDS011;7457;50.960;6.830;2023-03-01T16:49:54;8.15;;;5.22;;
14732;SDS011;7457;50.960;6.830;2023-03-01T16:52:20;5.65;;;4.18;;
14732;SDS011;7457;50.960;6.830;2023-03-01T16:54:47;8.68;;;5.72;;
14732;SDS011;7457;50.960;6.830;2023-03-01T16:57:13;5.95;;;5.05;;
14732;SDS011;7457;50.960;6.830;2023-03-01T16:59:38;6.88;;;5.07;;
14732;SDS011;7457;50.960;6.830;2023-03-01T17:02:05;7.88;;;6.07;;
14732;SDS011;7457;50.960;6.830;2023-03-01T17:04:33;6.68;;;4.65;;